Time;durP1;ratioP1;P1;durP2;ratioP2;P2;SDS_P1;SDS_P2;PMS_P1;PMS_P2;Temp;Humidity;BMP_temperature;BMP_pressure;BME280_temperature;BME280_humidity;BME280_pressure;Samples;Min_cycle;Max_cycle;Signal;HPM_P1;HPM_P2
2023/07/17 07:16:36;;;;;;;5.90;2.10;;;;;;;32.30;38.37;100413.48;86078;1296;545515;-64
2023/07/17 07:18:38;;;;;;;1.60;1.50;;;;;;;32.20;38.12;100414.20;87199;1284;22562;-64
2023/07/17 07:20:40;;;;;;;3.80;3.50;;;;;;;32.06;38.56;100415.96;87186;1284;138263;-62
2023/07/17 07:22:42;;;;;;;3.90;3.60;;;;;;;31.99;39.13;100418.70;87401;1283;24226;-65
2023/07/17 07:24:46;;;;;;;1.70;1.60;;;;;;;32.02;39.01;100417.14;87246;1284;138588;-63
2023/07/17 07:26:48;;;;;;;2.00;1.50;;;;;;;32.02;39.08;100420.92;87275;1283;22547;-64
2023/07/17 07:28:49;;;;;;;1.60;1.50;;;;;;;31.94;39.28;100419.89;87170;1283;138174;-64
2023/07/17 07:30:58;;;;;;;2.90;2.60;;;;;;;31.87;39.52;100418.11;87108;1283;189632;-64
2023/07/17 07:33:00;;;;;;;5.60;2.80;;;;;;;31.76;39.72;100419.48;87337;1267;138924;-63
2023/07/17 07:35:02;;;;;;;1.90;1.70;;;;;;;31.69;40.13;100418.27;87413;1279;25491;-62
2023/07/17 07:37:04;;;;;;;1.70;1.60;;;;;;;31.55;39.65;100416.77;87391;1283;138429;-63
2023/07/17 07:39:06;;;;;;;4.00;2.00;;;;;;;31.33;40.09;100413.20;87462;1283;22764;-62
2023/07/17 07:41:08;;;;;;;2.20;1.80;;;;;;;31.14;40.42;100411.67;88060;1270;138564;-63
2023/07/17 07:43:10;;;;;;;2.30;1.40;;;;;;;31.05;40.97;100409.99;88174;1271;25452;-64
2023/07/17 07:45:12;;;;;;;4.30;2.40;;;;;;;30.99;41.43;100410.14;88063;1271;138817;-62
2023/07/17 07:47:14;;;;;;;2.60;2.50;;;;;;;31.01;41.57;100410.30;88143;1271;24279;-65
2023/07/17 07:49:17;;;;;;;3.10;2.90;;;;;;;31.05;41.67;100405.69;87928;1258;138793;-64
2023/07/17 07:51:19;;;;;;;2.40;2.20;;;;;;;31.11;41.54;100405.78;87954;1271;24389;-64
2023/07/17 07:53:20;;;;;;;3.00;1.90;;;;;;;31.14;41.80;100404.48;88048;1270;138603;-63
2023/07/17 07:55:22;;;;;;;3.20;2.70;;;;;;;31.09;42.12;100403.05;88125;1270;22523;-63
2023/07/17 07:57:24;;;;;;;3.50;2.70;;;;;;;30.99;41.97;100405.11;88044;1271;139548;-62
2023/07/17 07:59:25;;;;;;;2.90;1.70;;;;;;;30.95;42.44;100404.69;88125;1272;22659;-63
2023/07/17 08:01:27;;;;;;;2.40;1.80;;;;;;;30.95;42.11;100402.17;88003;1271;138729;-64
2023/07/17 08:48:09;;;;;;;3.00;2.30;;;;;;;31.62;40.54;100395.95;85627;1306;544767;-64
2023/07/17 08:50:13;;;;;;;2.00;1.90;;;;;;;31.68;40.65;100390.06;87337;1285;25761;-65
2023/07/17 08:52:20;;;;;;;13.00;3.10;;;;;;;31.81;40.39;100395.50;89260;1269;137068;-65
2023/07/17 08:54:23;;;;;;;4.10;3.80;;;;;;;31.88;40.53;100394.98;87318;1285;25252;-63
2023/07/17 08:56:29;;;;;;;3.00;2.80;;;;;;;31.90;40.09;100391.11;87453;1285;138092;-63
2023/07/17 08:58:30;;;;;;;8.10;2.60;;;;;;;31.88;40.38;100388.70;87383;1285;24887;-63
2023/07/17 09:00:32;;;;;;;3.00;2.80;;;;;;;31.80;40.31;100396.41;87327;1285;138064;-63
2023/07/17 09:02:34;;;;;;;3.60;2.30;;;;;;;31.68;39.96;100398.55;87426;1282;197346;-65
2023/07/17 09:04:36;;;;;;;5.40;3.20;;;;;;;31.54;40.47;100399.17;87299;1283;138460;-63
2023/07/17 09:06:38;;;;;;;2.50;2.40;;;;;;;31.43;40.96;100400.55;87541;1282;22611;-63
2023/07/17 09:08:40;;;;;;;6.30;3.00;;;;;;;31.36;40.73;100398.73;87355;1282;137979;-63
2023/07/17 09:10:42;;;;;;;2.40;2.30;;;;;;;31.32;40.78;100398.98;87478;1282;24211;-62
2023/07/17 09:12:56;;;;;;;3.00;2.90;;;;;;;31.31;41.02;100394.92;90847;1275;137926;-62
2023/07/17 09:14:58;;;;;;;2.70;2.20;;;;;;;31.36;41.45;100395.80;90956;1275;23152;-64
2023/07/17 09:17:03;;;;;;;4.40;2.40;;;;;;;31.45;41.34;100392.06;90843;1260;138451;-64
2023/07/17 09:19:05;;;;;;;7.50;2.90;;;;;;;31.58;40.97;100389.65;90870;1273;22485;-62
2023/07/17 09:21:07;;;;;;;3.60;2.90;;;;;;;31.69;40.56;100390.04;90863;1275;137273;-63
2023/07/17 09:23:08;;;;;;;2.70;2.50;;;;;;;31.79;40.27;100388.95;90966;1275;22159;-64
2023/07/17 09:25:12;;;;;;;2.60;2.40;;;;;;;31.87;39.96;100381.63;90868;1275;138096;-65
2023/07/17 09:27:14;;;;;;;9.90;2.80;;;;;;;31.89;39.79;100381.17;90924;1275;22395;-62
2023/07/17 09:29:21;;;;;;;5.10;3.30;;;;;;;31.83;39.80;100382.75;90891;1274;137681;-62
2023/07/17 09:31:25;;;;;;;3.80;2.70;;;;;;;31.75;40.10;100375.70;90899;1275;22418;-65
2023/07/17 09:33:27;;;;;;;3.00;2.90;;;;;;;31.67;40.33;100371.21;90792;1277;138776;-64
2023/07/17 09:35:28;;;;;;;3.10;2.40;;;;;;;31.70;39.96;100379.21;90969;1275;22366;-64
2023/07/17 09:37:31;;;;;;;4.00;2.70;;;;;;;31.67;40.19;100376.71;90909;1270;138476;-63
2023/07/17 09:39:35;;;;;;;3.40;3.10;;;;;;;31.68;40.42;100373.84;90996;1274;22333;-63
2023/07/17 09:41:37;;;;;;;5.40;3.00;;;;;;;31.68;40.32;100370.69;90875;1270;138560;-63
2023/07/17 09:43:39;;;;;;;3.30;3.00;;;;;;;31.72;40.83;100370.55;90990;1275;22435;-63
2023/07/17 09:45:42;;;;;;;5.80;3.10;;;;;;;31.79;40.55;100371.87;90879;1274;138320;-63
2023/07/17 09:47:45;;;;;;;3.40;2.80;;;;;;;31.84;39.99;100370.55;90895;1276;22340;-65
2023/07/17 09:49:54;;;;;;;2.60;2.40;;;;;;;31.87;39.77;100364.05;90870;1264;139226;-63
2023/07/17 09:51:57;;;;;;;2.80;2.50;;;;;;;31.87;39.50;100361.23;90898;1278;22253;-62
2023/07/17 09:53:59;;;;;;;3.60;2.60;;;;;;;31.86;39.34;100353.77;90858;1275;136857;-64
2023/07/17 09:56:01;;;;;;;4.10;2.60;;;;;;;31.89;39.11;100353.45;90868;1276;23054;-64
2023/07/17 09:58:04;;;;;;;6.60;3.30;;;;;;;31.86;39.34;100358.77;90960;1275;22392;-64
2023/07/17 10:00:11;;;;;;;2.50;2.30;;;;;;;31.86;39.47;100355.36;90882;1274;137578;-64
2023/07/17 10:02:18;;;;;;;2.90;2.70;;;;;;;31.91;39.66;100358.16;90856;1278;22462;-64
2023/07/17 10:04:27;;;;;;;7.30;2.50;;;;;;;32.02;39.62;100354.85;90860;1274;137856;-63
2023/07/17 10:06:30;;;;;;;4.00;3.60;;;;;;;32.15;39.64;100354.11;90946;1268;23218;-63
2023/07/17 10:08:32;;;;;;;3.30;3.10;;;;;;;32.22;39.33;100349.27;90850;1274;138463;-63
2023/07/17 10:10:35;;;;;;;6.00;3.40;;;;;;;32.25;39.27;100347.20;90948;1275;22374;-64
2023/07/17 10:12:38;;;;;;;5.80;2.90;;;;;;;32.32;39.23;100348.73;90845;1275;138818;-63
2023/07/17 10:14:42;;;;;;;3.10;2.80;;;;;;;32.39;39.34;100347.97;90962;1275;22386;-63
2023/07/17 10:16:44;;;;;;;5.10;4.40;;;;;;;32.43;38.86;100349.99;90832;1275;137880;-63
2023/07/17 10:18:49;;;;;;;4.10;3.30;;;;;;;32.42;38.86;100349.64;91000;1275;22191;-63
2023/07/17 10:20:54;;;;;;;3.80;3.50;;;;;;;32.39;38.50;100350.08;90843;1274;139249;-63
2023/07/17 10:22:55;;;;;;;4.70;2.80;;;;;;;32.37;38.82;100348.74;90993;1275;22421;-62
2023/07/17 10:24:57;;;;;;;3.00;2.80;;;;;;;32.35;39.44;100350.28;90875;1275;137430;-64
2023/07/17 10:27:00;;;;;;;5.30;2.60;;;;;;;32.28;38.76;100345.89;90948;1275;22398;-64
2023/07/17 10:29:04;;;;;;;4.10;3.80;;;;;;;32.19;39.12;100342.92;90766;1276;138335;-63
2023/07/17 10:31:25;;;;;;;4.50;2.70;;;;;;;32.10;39.78;100341.73;90886;1276;22385;-64
2023/07/17 10:33:35;;;;;;;3.10;2.90;;;;;;;32.00;39.48;100343.49;90852;1275;138273;-63
2023/07/17 10:35:44;;;;;;;3.80;2.70;;;;;;;31.95;40.07;100342.91;90958;1274;23011;-63
2023/07/17 10:37:46;;;;;;;3.00;2.80;;;;;;;31.91;40.24;100339.75;90852;1275;139416;-64
2023/07/17 10:39:48;;;;;;;3.70;3.40;;;;;;;31.84;39.97;100337.48;90956;1275;23504;-62
2023/07/17 10:41:50;;;;;;;2.70;2.50;;;;;;;31.80;40.20;100332.60;90843;1275;138626;-63
2023/07/17 10:44:00;;;;;;;3.10;2.80;;;;;;;31.78;40.54;100330.75;90943;1275;22348;-63
2023/07/17 10:46:17;;;;;;;2.80;2.60;;;;;;;31.77;40.83;100331.08;90942;1275;22415;-62
2023/07/17 10:48:19;;;;;;;3.80;3.40;;;;;;;31.75;40.53;100330.59;90854;1275;137333;-63
2023/07/17 10:50:21;;;;;;;3.50;2.90;;;;;;;31.74;40.56;100333.77;90987;1276;23131;-63
2023/07/17 10:52:22;;;;;;;3.70;3.10;;;;;;;31.71;40.03;100339.01;90823;1275;137399;-64
2023/07/17 10:54:26;;;;;;;4.80;3.00;;;;;;;31.66;40.41;100335.42;90976;1275;22116;-63
2023/07/17 10:56:29;;;;;;;3.50;3.00;;;;;;;31.61;40.44;100335.80;90838;1275;138791;-64
2023/07/17 10:58:31;;;;;;;3.10;2.80;;;;;;;31.63;40.30;100338.00;90946;1275;23066;-63
2023/07/17 11:00:34;;;;;;;2.80;2.60;;;;;;;31.67;40.17;100340.13;90856;1275;139379;-64
2023/07/17 11:02:36;;;;;;;2.90;2.60;;;;;;;31.75;40.81;100335.64;90958;1275;22325;-65
2023/07/17 11:04:37;;;;;;;3.80;3.50;;;;;;;31.82;40.69;100329.87;90817;1275;141572;-63
2023/07/17 11:06:39;;;;;;;3.70;3.40;;;;;;;31.85;40.44;100332.02;90939;1276;23068;-63
2023/07/17 11:08:42;;;;;;;3.90;3.70;;;;;;;31.88;40.55;100331.60;90838;1275;138310;-63
2023/07/17 11:10:45;;;;;;;5.40;2.70;;;;;;;31.92;40.43;100333.10;90978;1275;22324;-64
2023/07/17 11:12:47;;;;;;;2.90;2.70;;;;;;;31.88;41.07;100325.08;90786;1276;138399;-62
2023/07/17 11:14:52;;;;;;;3.10;2.90;;;;;;;31.87;41.46;100321.48;91021;1275;23178;-63
2023/07/17 11:16:54;;;;;;;2.60;2.50;;;;;;;31.84;41.45;100320.48;90845;1275;137362;-63
2023/07/17 11:18:56;;;;;;;2.90;2.70;;;;;;;31.85;41.58;100320.59;90928;1275;22815;-63
2023/07/17 11:20:58;;;;;;;3.40;2.90;;;;;;;31.86;41.06;100322.68;90862;1275;137493;-63
2023/07/17 11:23:00;;;;;;;3.20;2.90;;;;;;;31.81;41.26;100319.05;90852;1277;22197;-63
2023/07/17 11:25:03;;;;;;;3.10;2.90;;;;;;;31.75;40.93;100320.51;90848;1274;139460;-63
2023/07/17 11:27:05;;;;;;;2.70;2.60;;;;;;;31.70;41.43;100321.66;91030;1275;23040;-64
2023/07/17 11:29:07;;;;;;;3.00;2.80;;;;;;;31.69;41.60;100326.73;90813;1275;136863;-63
2023/07/17 11:31:25;;;;;;;2.60;2.50;;;;;;;31.68;41.84;100325.34;90959;1275;22315;-65
2023/07/17 11:33:27;;;;;;;2.80;2.70;;;;;;;31.67;41.84;100327.36;90877;1275;136912;-63
2023/07/17 11:35:46;;;;;;;5.90;3.60;;;;;;;31.64;41.78;100327.65;90941;1270;22411;-64
2023/07/17 11:37:48;;;;;;;3.70;3.30;;;;;;;31.63;41.48;100324.23;90722;1276;138281;-63
2023/07/17 11:39:52;;;;;;;6.90;3.50;;;;;;;31.58;41.11;100319.84;90979;1274;22359;-65
2023/07/17 11:41:54;;;;;;;;;;;;;;;31.55;41.21;100320.77;90839;1275;137027;-63
2023/07/17 11:43:57;;;;;;;2.90;2.60;;;;;;;31.53;41.21;100316.20;90955;1275;22400;-64
2023/07/17 11:46:02;;;;;;;4.50;2.70;;;;;;;31.54;41.71;100315.42;90891;1274;138523;-64
2023/07/17 11:48:05;;;;;;;3.70;3.20;;;;;;;31.58;42.45;100308.83;90861;1275;138579;-63
2023/07/17 11:50:07;;;;;;;2.70;2.60;;;;;;;31.59;41.67;100310.20;90967;1275;22319;-64
2023/07/17 11:52:18;;;;;;;3.80;3.30;;;;;;;31.56;41.70;100299.91;90887;1275;137913;-63
2023/07/17 11:54:37;;;;;;;3.20;2.90;;;;;;;31.64;41.97;100304.64;90900;1276;22130;-63
2023/07/17 11:56:44;;;;;;;3.10;2.90;;;;;;;31.63;42.02;100305.74;90893;1275;138407;-63
2023/07/17 11:58:52;;;;;;;3.30;3.10;;;;;;;31.63;41.63;100303.61;90939;1276;23091;-63
2023/07/17 12:00:55;;;;;;;4.50;3.10;;;;;;;31.67;41.31;100299.66;90831;1275;137420;-64
2023/07/17 12:02:57;;;;;;;4.40;2.90;;;;;;;31.73;41.50;100299.73;90988;1275;22373;-63
2023/07/17 12:05:01;;;;;;;4.50;2.70;;;;;;;31.77;41.96;100293.77;90865;1276;139389;-64
2023/07/17 12:07:04;;;;;;;4.70;2.60;;;;;;;31.76;41.31;100291.84;90961;1275;22325;-63
2023/07/17 12:09:06;;;;;;;2.90;2.60;;;;;;;31.74;40.54;100290.42;90869;1275;138894;-64
2023/07/17 12:11:08;;;;;;;3.40;2.90;;;;;;;31.72;40.42;100286.40;90975;1275;23784;-64
2023/07/17 12:13:09;;;;;;;3.80;2.90;;;;;;;31.72;40.42;100285.23;90827;1276;138826;-64
2023/07/17 12:15:11;;;;;;;2.60;2.50;;;;;;;31.76;40.17;100283.16;90932;1275;23007;-64
2023/07/17 12:17:13;;;;;;;3.80;3.00;;;;;;;31.80;40.05;100282.10;90831;1275;137611;-65
2023/07/17 12:19:15;;;;;;;3.10;2.90;;;;;;;31.86;40.00;100280.56;90925;1276;22323;-64
2023/07/17 12:21:16;;;;;;;3.60;3.40;;;;;;;31.90;40.18;100279.94;90885;1276;138332;-64
2023/07/17 12:23:24;;;;;;;6.90;3.10;;;;;;;31.87;40.80;100267.31;90948;1275;22147;-64
2023/07/17 12:25:29;;;;;;;3.50;3.30;;;;;;;31.96;41.07;100275.70;90820;1276;137429;-64
2023/07/17 12:27:31;;;;;;;2.80;2.60;;;;;;;32.00;41.52;100275.72;90952;1276;23018;-62
2023/07/17 12:29:34;;;;;;;3.00;2.40;;;;;;;32.05;41.03;100270.73;90876;1275;137603;-65
2023/07/17 12:31:36;;;;;;;4.10;3.00;;;;;;;32.07;40.08;100270.06;90946;1276;22380;-64
2023/07/17 12:33:39;;;;;;;3.40;2.80;;;;;;;32.06;40.21;100269.86;90870;1275;139182;-63
2023/07/17 12:35:45;;;;;;;3.10;2.90;;;;;;;32.08;40.27;100265.86;90843;1276;23352;-64
2023/07/17 12:37:46;;;;;;;3.30;3.00;;;;;;;32.15;39.86;100263.30;90850;1274;138922;-64
2023/07/17 12:39:48;;;;;;;3.90;2.80;;;;;;;32.23;39.79;100263.80;90916;1276;22280;-64
2023/07/17 12:41:49;;;;;;;3.50;2.90;;;;;;;32.26;39.69;100263.71;90826;1275;137886;-63
2023/07/17 12:43:52;;;;;;;4.80;2.70;;;;;;;32.27;39.57;100262.48;90951;1276;22350;-63
2023/07/17 12:45:53;;;;;;;3.30;3.10;;;;;;;32.26;39.66;100256.23;90934;1273;140303;-64
2023/07/17 12:47:55;;;;;;;3.20;2.90;;;;;;;32.25;39.81;100256.33;91064;1273;22330;-62
2023/07/17 12:49:57;;;;;;;3.00;2.20;;;;;;;32.22;40.17;100254.18;90968;1272;137606;-64
2023/07/17 12:52:00;;;;;;;4.00;3.30;;;;;;;32.17;39.66;100251.40;91037;1273;22333;-64
2023/07/17 12:54:02;;;;;;;4.10;3.10;;;;;;;32.12;39.97;100249.64;90957;1273;138570;-63
2023/07/17 12:56:04;;;;;;;4.60;2.80;;;;;;;32.07;40.04;100248.33;90953;1275;138910;-63
2023/07/17 12:58:17;;;;;;;2.90;2.70;;;;;;;31.98;40.04;100244.77;91086;1273;23165;-64
2023/07/17 13:00:19;;;;;;;4.70;3.10;;;;;;;31.92;40.57;100239.38;90975;1261;138399;-63
2023/07/17 13:02:23;;;;;;;3.10;3.00;;;;;;;31.83;40.75;100243.38;91018;1272;23230;-63
2023/07/17 13:04:25;;;;;;;3.30;3.00;;;;;;;31.74;40.81;100249.09;90966;1274;137837;-63
2023/07/17 13:06:27;;;;;;;3.30;2.90;;;;;;;31.68;40.96;100244.52;90941;1275;22402;-64
2023/07/17 13:08:29;;;;;;;4.00;2.50;;;;;;;31.69;40.95;100243.46;90965;1272;139016;-64
2023/07/17 13:10:30;;;;;;;3.00;2.90;;;;;;;31.72;40.83;100240.26;91079;1273;23006;-64
2023/07/17 13:12:33;;;;;;;2.90;2.70;;;;;;;31.76;41.00;100238.85;90982;1275;137760;-63
2023/07/17 13:14:49;;;;;;;3.20;3.00;;;;;;;31.82;40.93;100235.25;91216;1270;22336;-63
2023/07/17 13:16:51;;;;;;;2.80;2.70;;;;;;;31.87;40.50;100229.40;91103;1271;137318;-64
2023/07/17 13:18:54;;;;;;;3.70;2.60;;;;;;;31.89;40.27;100227.45;91230;1269;22208;-66
2023/07/17 13:20:56;;;;;;;2.90;2.70;;;;;;;31.88;40.19;100227.48;90827;1272;139000;-63
2023/07/17 13:22:58;;;;;;;3.10;2.70;;;;;;;31.84;40.16;100225.86;91207;1270;22455;-64
2023/07/17 13:25:00;;;;;;;2.80;2.60;;;;;;;31.80;40.15;100221.00;91141;1270;138822;-65
2023/07/17 13:27:01;;;;;;;3.20;2.50;;;;;;;31.78;40.16;100219.35;91244;1259;22214;-63
2023/07/17 13:29:07;;;;;;;3.60;2.70;;;;;;;31.78;40.28;100216.89;91074;1270;138610;-63
2023/07/17 13:31:09;;;;;;;4.70;2.70;;;;;;;31.79;40.26;100214.19;91212;1272;23146;-64
2023/07/17 13:33:11;;;;;;;2.80;2.60;;;;;;;31.83;40.34;100215.17;91121;1269;139067;-63
2023/07/17 13:35:13;;;;;;;4.40;2.70;;;;;;;31.85;40.66;100215.25;91154;1270;22396;-63
2023/07/17 13:37:14;;;;;;;2.40;2.30;;;;;;;31.82;40.76;100216.02;91125;1270;138738;-64
2023/07/17 13:39:16;;;;;;;4.70;3.10;;;;;;;31.74;40.52;100218.98;91181;1273;22200;-64
2023/07/17 13:41:38;;;;;;;4.20;2.60;;;;;;;31.65;40.35;100218.20;91128;1270;138888;-64
2023/07/17 13:43:40;;;;;;;4.10;2.80;;;;;;;31.59;40.44;100213.89;91261;1270;23175;-63
2023/07/17 13:45:43;;;;;;;2.70;2.40;;;;;;;31.58;40.94;100212.80;91120;1270;139693;-63
2023/07/17 13:47:45;;;;;;;2.50;2.30;;;;;;;31.56;40.68;100211.24;91231;1270;22143;-64
2023/07/17 13:49:46;;;;;;;3.40;2.30;;;;;;;31.54;40.37;100208.96;91152;1272;137836;-64
2023/07/17 13:51:48;;;;;;;2.80;2.70;;;;;;;31.51;40.19;100208.83;91215;1272;22372;-63
2023/07/17 13:53:50;;;;;;;3.90;2.90;;;;;;;31.47;40.02;100208.41;91132;1271;138230;-63
2023/07/17 13:55:51;;;;;;;2.90;2.70;;;;;;;31.44;40.33;100208.92;91203;1269;22293;-63
2023/07/17 13:57:53;;;;;;;2.50;2.30;;;;;;;31.44;40.66;100205.71;90924;1273;137282;-63
2023/07/17 13:59:56;;;;;;;3.30;2.20;;;;;;;31.46;40.83;100206.99;91189;1269;22346;-63
2023/07/17 14:01:58;;;;;;;4.00;2.90;;;;;;;31.44;40.68;100209.86;91163;1270;139190;-64
2023/07/17 14:04:02;;;;;;;4.00;2.30;;;;;;;31.44;40.71;100209.69;91207;1270;22392;-63
2023/07/17 14:06:04;;;;;;;4.50;2.80;;;;;;;31.46;41.44;100209.86;91239;1270;22191;-62
2023/07/17 14:08:06;;;;;;;2.60;2.50;;;;;;;31.46;41.37;100212.33;91127;1270;138804;-63
2023/07/17 14:10:08;;;;;;;5.00;2.50;;;;;;;31.43;41.26;100211.95;91228;1273;23127;-63
2023/07/17 14:12:10;;;;;;;3.00;2.70;;;;;;;31.39;41.47;100206.69;91078;1269;139505;-64
2023/07/17 14:14:12;;;;;;;3.80;2.50;;;;;;;31.36;41.55;100208.23;91233;1272;22218;-64
2023/07/17 14:16:13;;;;;;;2.60;2.30;;;;;;;31.33;41.59;100204.70;91086;1269;138302;-63
2023/07/17 14:18:15;;;;;;;2.20;2.10;;;;;;;31.30;41.52;100203.09;91240;1269;22366;-64
2023/07/17 14:20:17;;;;;;;3.30;3.10;;;;;;;31.30;41.67;100204.59;91109;1271;137701;-62
2023/07/17 14:22:19;;;;;;;4.90;2.70;;;;;;;31.32;41.83;100204.03;91115;1271;22279;-62
2023/07/17 14:24:20;;;;;;;3.10;2.90;;;;;;;31.35;42.11;100204.40;91117;1270;137784;-63
2023/07/17 14:26:22;;;;;;;4.60;2.40;;;;;;;31.38;42.06;100201.11;91140;1272;22338;-64
2023/07/17 14:28:24;;;;;;;3.00;1.90;;;;;;;31.38;41.89;100202.92;91154;1272;139112;-65
2023/07/17 14:30:26;;;;;;;2.00;2.00;;;;;;;31.35;41.58;100200.61;91221;1261;23251;-63
2023/07/17 14:32:28;;;;;;;3.50;2.20;;;;;;;31.31;41.45;100200.89;91119;1273;139138;-63
2023/07/17 14:34:29;;;;;;;6.40;2.50;;;;;;;31.26;41.43;100195.66;91225;1272;22346;-63
2023/07/17 14:36:31;;;;;;;5.90;3.30;;;;;;;31.23;41.65;100189.84;91092;1270;137704;-64
2023/07/17 14:38:36;;;;;;;2.50;2.40;;;;;;;31.23;41.70;100186.70;91177;1272;22255;-64
2023/07/17 14:40:38;;;;;;;2.50;2.30;;;;;;;31.22;41.92;100182.60;91090;1270;138029;-64
2023/07/17 14:42:39;;;;;;;2.50;2.30;;;;;;;31.19;41.75;100180.99;91123;1272;23442;-64
2023/07/17 14:44:41;;;;;;;3.60;2.40;;;;;;;31.17;41.98;100180.06;91025;1270;137418;-63
2023/07/17 14:46:43;;;;;;;2.70;2.60;;;;;;;31.17;42.21;100179.12;91242;1270;22349;-63
2023/07/17 14:48:45;;;;;;;3.50;2.70;;;;;;;31.18;42.33;100180.02;91148;1270;137434;-64
2023/07/17 14:50:47;;;;;;;3.00;2.30;;;;;;;31.20;41.98;100174.27;91195;1273;22793;-63
2023/07/17 14:52:49;;;;;;;2.80;2.40;;;;;;;31.19;41.83;100175.36;91099;1270;138601;-64
2023/07/17 14:54:54;;;;;;;5.80;2.60;;;;;;;31.16;41.71;100171.94;91218;1271;22108;-64
2023/07/17 14:56:55;;;;;;;3.20;2.20;;;;;;;31.14;41.84;100173.24;91144;1270;139381;-65
2023/07/17 14:58:57;;;;;;;3.20;2.40;;;;;;;31.13;41.93;100176.06;91174;1272;22333;-63
2023/07/17 15:00:58;;;;;;;2.70;2.60;;;;;;;31.15;41.80;100176.45;91081;1270;137470;-65
2023/07/17 15:03:00;;;;;;;3.80;2.40;;;;;;;31.17;42.29;100175.20;91219;1269;22343;-63
2023/07/17 15:05:03;;;;;;;4.40;2.00;;;;;;;31.19;42.68;100173.23;91116;1270;138350;-63
2023/07/17 15:07:05;;;;;;;2.90;2.70;;;;;;;31.19;42.49;100172.52;91216;1270;22922;-64
2023/07/17 15:09:07;;;;;;;2.70;1.70;;;;;;;31.19;42.35;100172.12;91188;1270;137961;-64
2023/07/17 15:11:08;;;;;;;2.40;2.30;;;;;;;31.19;42.26;100169.43;91244;1273;22320;-63
2023/07/17 15:13:10;;;;;;;2.40;2.00;;;;;;;31.19;42.32;100166.28;91161;1254;139355;-61
2023/07/17 15:15:12;;;;;;;2.50;2.40;;;;;;;31.18;42.28;100165.58;91231;1267;22171;-63
2023/07/17 15:17:13;;;;;;;3.00;2.80;;;;;;;31.18;42.76;100165.81;91087;1271;137322;-64
2023/07/17 15:19:15;;;;;;;3.40;2.40;;;;;;;31.08;43.25;100147.98;91204;1273;23073;-63
2023/07/17 15:21:17;;;;;;;3.10;2.20;;;;;;;31.10;42.73;100154.05;91086;1272;138973;-64
2023/07/17 15:23:18;;;;;;;2.40;2.20;;;;;;;31.15;42.59;100165.89;91262;1270;22313;-64
2023/07/17 15:25:20;;;;;;;3.50;2.70;;;;;;;31.14;42.49;100163.56;91071;1275;137416;-64
2023/07/17 15:27:22;;;;;;;4.90;2.20;;;;;;;31.07;42.63;100151.67;91148;1272;22339;-64
2023/07/17 15:29:24;;;;;;;2.50;2.20;;;;;;;31.12;42.95;100160.65;91108;1270;138722;-63
2023/07/17 15:31:26;;;;;;;3.10;2.60;;;;;;;31.10;43.36;100161.31;91206;1273;22457;-64
2023/07/17 15:33:29;;;;;;;7.90;2.80;;;;;;;31.09;43.32;100162.04;91012;1272;137265;-65
2023/07/17 15:35:30;;;;;;;3.20;2.40;;;;;;;31.07;43.21;100162.43;91208;1271;22321;-65
2023/07/17 15:37:33;;;;;;;2.00;1.90;;;;;;;31.04;42.93;100156.27;90996;1272;137213;-63
2023/07/17 15:39:36;;;;;;;3.50;2.40;;;;;;;31.00;42.92;100158.38;91265;1273;21970;-63
2023/07/17 15:41:38;;;;;;;2.90;2.60;;;;;;;30.96;43.10;100156.62;91108;1270;139284;-64
2023/07/17 15:43:39;;;;;;;3.40;2.30;;;;;;;30.91;43.34;100155.79;91220;1272;23144;-64
2023/07/17 15:45:41;;;;;;;5.40;2.40;;;;;;;30.86;43.43;100156.81;91127;1270;138231;-64
2023/07/17 15:47:44;;;;;;;4.90;3.30;;;;;;;30.81;43.49;100158.52;91123;1273;22363;-64
2023/07/17 15:49:46;;;;;;;4.30;2.00;;;;;;;30.77;44.06;100159.67;91173;1273;137908;-63
2023/07/17 15:51:48;;;;;;;5.00;2.90;;;;;;;30.72;44.04;100162.44;91213;1271;22297;-63
2023/07/17 15:53:50;;;;;;;3.50;3.20;;;;;;;30.66;44.08;100163.16;91101;1272;137878;-63
2023/07/17 15:55:51;;;;;;;6.20;2.80;;;;;;;30.61;43.69;100167.34;91217;1270;23059;-64
2023/07/17 15:57:53;;;;;;;2.30;2.20;;;;;;;30.57;43.98;100167.33;91098;1270;138099;-64
2023/07/17 15:59:55;;;;;;;2.80;2.70;;;;;;;30.55;44.27;100168.14;91269;1270;22131;-63
2023/07/17 16:01:57;;;;;;;2.90;2.70;;;;;;;30.52;44.52;100169.22;91105;1273;138376;-63
2023/07/17 16:03:59;;;;;;;6.30;2.60;;;;;;;30.50;44.67;100174.22;91242;1272;23434;-64
2023/07/17 16:06:02;;;;;;;3.00;2.70;;;;;;;30.46;44.53;100176.83;91154;1270;137995;-64
2023/07/17 16:08:04;;;;;;;5.70;2.30;;;;;;;30.42;43.99;100176.52;91055;1273;139495;-62
2023/07/17 16:10:06;;;;;;;3.00;2.80;;;;;;;30.35;43.81;100169.20;91223;1273;22184;-64
2023/07/17 16:12:08;;;;;;;4.30;2.80;;;;;;;30.34;44.04;100172.14;91118;1273;138770;-63
2023/07/17 16:14:10;;;;;;;3.00;2.60;;;;;;;30.39;44.82;100181.92;91276;1270;23656;-64
2023/07/17 16:16:12;;;;;;;3.40;2.80;;;;;;;30.38;45.49;100179.52;91120;1270;137563;-62
2023/07/17 16:18:14;;;;;;;3.20;2.70;;;;;;;30.30;45.79;100168.83;91232;1272;22214;-64
2023/07/17 16:20:16;;;;;;;3.40;2.80;;;;;;;30.29;45.84;100169.09;91163;1273;139753;-64
2023/07/17 16:22:17;;;;;;;4.40;3.60;;;;;;;30.35;46.18;100178.46;91240;1270;22434;-65
2023/07/17 16:24:19;;;;;;;3.80;2.90;;;;;;;30.34;46.48;100176.69;91121;1270;139510;-63
2023/07/17 16:26:20;;;;;;;5.10;3.30;;;;;;;30.33;46.55;100175.16;91264;1270;23126;-64
2023/07/17 16:28:22;;;;;;;5.80;3.20;;;;;;;30.33;46.71;100170.44;91147;1272;138713;-64
2023/07/17 16:30:24;;;;;;;4.00;3.20;;;;;;;30.33;47.03;100166.98;91267;1270;22340;-63
2023/07/17 16:32:25;;;;;;;3.80;3.40;;;;;;;30.31;47.06;100167.17;91108;1271;138377;-64
2023/07/17 16:34:27;;;;;;;5.30;3.50;;;;;;;30.30;46.93;100166.44;91235;1270;23209;-64
2023/07/17 16:36:33;;;;;;;6.00;3.60;;;;;;;30.28;47.02;100165.85;91151;1260;137367;-62
2023/07/17 16:38:35;;;;;;;4.80;3.60;;;;;;;30.25;46.99;100164.11;91186;1270;22377;-65
2023/07/17 16:40:37;;;;;;;3.30;3.00;;;;;;;30.24;47.05;100168.13;91115;1270;137685;-65
2023/07/17 16:42:38;;;;;;;3.90;3.30;;;;;;;30.23;46.91;100167.60;91222;1275;22651;-64
2023/07/17 16:44:40;;;;;;;3.60;3.30;;;;;;;30.23;46.77;100169.27;91111;1272;137666;-65
2023/07/17 16:46:42;;;;;;;5.60;3.70;;;;;;;30.23;46.95;100168.71;91251;1270;22494;-63
2023/07/17 16:48:44;;;;;;;6.90;3.60;;;;;;;30.21;46.78;100167.61;91112;1270;139096;-63
2023/07/17 16:50:45;;;;;;;5.80;3.70;;;;;;;30.18;46.77;100164.19;91248;1270;22955;-62
2023/07/17 16:52:48;;;;;;;6.90;4.60;;;;;;;30.15;47.09;100164.80;91119;1270;137320;-67
2023/07/17 16:54:49;;;;;;;4.80;4.40;;;;;;;30.10;47.34;100163.52;91209;1270;22160;-63
2023/07/17 16:56:51;;;;;;;4.70;4.20;;;;;;;30.05;47.22;100159.59;91149;1270;140375;-64
2023/07/17 16:58:52;;;;;;;6.50;4.40;;;;;;;30.01;47.24;100162.70;91219;1270;23069;-65
2023/07/17 17:00:54;;;;;;;5.30;4.80;;;;;;;29.96;47.16;100161.37;91144;1270;137638;-64
2023/07/17 17:02:56;;;;;;;6.20;3.40;;;;;;;29.92;47.22;100160.41;91158;1270;22214;-64
2023/07/17 17:04:58;;;;;;;7.20;3.80;;;;;;;29.88;47.31;100157.27;91136;1273;137741;-63
2023/07/17 17:07:00;;;;;;;3.80;3.50;;;;;;;29.87;47.37;100158.79;91225;1270;22339;-65
2023/07/17 17:09:16;;;;;;;6.40;3.70;;;;;;;29.86;47.22;100157.30;91182;1270;138917;-65
2023/07/17 17:11:18;;;;;;;4.10;3.70;;;;;;;29.79;47.21;100148.60;91211;1270;22704;-64
2023/07/17 17:13:19;;;;;;;4.20;3.80;;;;;;;29.78;47.21;100150.73;91069;1270;138463;-64
2023/07/17 17:15:21;;;;;;;7.30;3.90;;;;;;;29.81;47.24;100157.66;91240;1273;23032;-64
2023/07/17 17:17:23;;;;;;;5.50;4.00;;;;;;;29.81;47.32;100158.95;91148;1272;138274;-65
2023/07/17 17:19:25;;;;;;;3.10;2.80;;;;;;;29.74;47.47;100153.25;91164;1270;22186;-63
2023/07/17 17:21:27;;;;;;;4.90;3.30;;;;;;;29.70;47.36;100150.95;91091;1270;138626;-64
2023/07/17 17:23:29;;;;;;;3.80;3.50;;;;;;;29.75;47.36;100161.53;91179;1270;22984;-64
2023/07/17 17:25:30;;;;;;;10.60;6.80;;;;;;;29.73;47.67;100163.98;91149;1267;138636;-65
2023/07/17 17:27:32;;;;;;;8.40;5.00;;;;;;;29.71;47.72;100168.38;91248;1270;22310;-63
2023/07/17 17:29:35;;;;;;;5.50;5.00;;;;;;;29.69;47.88;100166.02;91111;1267;138791;-64